Time;durP1;ratioP1;P1;durP2;ratioP2;P2;SDS_P1;SDS_P2;PMS_P1;PMS_P2;Temp;Humidity;BMP_temperature;BMP_pressure;BME280_temperature;BME280_humidity;BME280_pressure;Samples;Min_cycle;Max_cycle;Signal;HPM_P1;HPM_P2
2022/07/10 00:00:28;;;;;;;7.40;6.90;;;17.90;99.90;;;;;;5023033;28;20205;-66
2022/07/10 00:02:54;;;;;;;8.17;7.47;;;17.90;99.90;;;;;;5020608;28;20430;-65
2022/07/10 00:05:20;;;;;;;7.80;7.10;;;17.90;99.90;;;;;;5013631;28;20444;-65
2022/07/10 00:07:46;;;;;;;7.67;6.97;;;18.00;99.90;;;;;;5016164;28;20265;-65
2022/07/10 00:10:12;;;;;;;7.20;6.70;;;18.10;99.90;;;;;;5015283;28;22147;-65
2022/07/10 00:12:37;;;;;;;8.10;7.40;;;18.10;99.90;;;;;;5012246;28;20469;-65
2022/07/10 00:15:04;;;;;;;6.90;6.20;;;18.10;99.90;;;;;;5015525;28;20185;-65
2022/07/10 00:17:31;;;;;;;8.37;7.83;;;18.10;99.90;;;;;;5021581;28;20175;-65
2022/07/10 00:19:56;;;;;;;7.90;7.27;;;18.10;99.90;;;;;;5012202;28;20487;-65
2022/07/10 00:22:22;;;;;;;7.37;6.80;;;18.00;99.90;;;;;;5020142;28;20438;-65
2022/07/10 00:24:50;;;;;;;8.70;8.03;;;18.00;99.90;;;;;;5012208;28;20233;-65
2022/07/10 00:27:16;;;;;;;7.83;7.33;;;18.00;99.90;;;;;;5026963;28;20258;-66
2022/07/10 00:29:41;;;;;;;7.77;7.20;;;18.10;99.90;;;;;;5011969;28;20557;-65
2022/07/10 00:32:07;;;;;;;7.70;7.17;;;18.00;99.90;;;;;;5018411;28;20443;-66
2022/07/10 00:34:33;;;;;;;7.60;7.00;;;17.90;99.90;;;;;;5019805;28;20191;-66
2022/07/10 00:36:58;;;;;;;6.23;5.73;;;18.00;99.90;;;;;;5011966;28;20177;-66
2022/07/10 00:39:24;;;;;;;6.90;6.47;;;17.90;99.90;;;;;;5012200;28;20257;-65
2022/07/10 00:41:50;;;;;;;7.20;6.70;;;18.00;99.90;;;;;;5015776;28;20178;-65
2022/07/10 00:44:15;;;;;;;7.60;7.10;;;18.00;99.90;;;;;;5014155;28;20457;-65
2022/07/10 00:46:41;;;;;;;6.97;6.40;;;17.90;99.90;;;;;;5014938;28;20632;-65
2022/07/10 00:49:06;;;;;;;8.20;7.53;;;18.00;99.90;;;;;;5022528;28;20262;-65
2022/07/10 00:51:33;;;;;;;7.00;6.50;;;18.10;99.90;;;;;;5014848;28;20198;-66
2022/07/10 00:54:00;;;;;;;8.60;7.80;;;18.10;99.90;;;;;;5014298;28;20179;-65
2022/07/10 00:56:27;;;;;;;7.10;6.60;;;18.00;99.90;;;;;;5012381;28;20433;-65
2022/07/10 00:58:53;;;;;;;6.77;6.27;;;18.00;99.90;;;;;;5018449;28;20430;-65
2022/07/10 01:01:20;;;;;;;8.20;7.57;;;18.10;99.90;;;;;;5012326;28;20461;-65
2022/07/10 01:03:46;;;;;;;7.13;6.63;;;18.10;99.90;;;;;;5015364;28;20434;-65
2022/07/10 01:06:13;;;;;;;7.70;7.20;;;18.00;99.90;;;;;;5015322;28;20426;-65
2022/07/10 01:08:39;;;;;;;7.23;6.63;;;17.90;99.90;;;;;;5018198;28;20950;-66
2022/07/10 01:11:05;;;;;;;7.60;6.93;;;17.80;99.90;;;;;;5011002;28;20544;-65
2022/07/10 01:13:31;;;;;;;7.40;6.90;;;17.80;99.90;;;;;;5011960;28;20313;-65
2022/07/10 01:15:57;;;;;;;8.43;7.90;;;17.70;99.90;;;;;;5018993;28;20171;-65
2022/07/10 01:18:23;;;;;;;6.80;6.40;;;17.60;99.90;;;;;;5011269;28;20784;-65
2022/07/10 01:20:53;;;;;;;7.57;7.07;;;17.50;99.90;;;;;;5017555;28;20472;-66
2022/07/10 01:23:18;;;;;;;7.00;6.50;;;17.50;99.90;;;;;;5011119;28;20444;-65
2022/07/10 01:25:44;;;;;;;7.07;6.47;;;17.40;99.90;;;;;;5016147;28;20441;-65
2022/07/10 01:28:09;;;;;;;7.00;6.50;;;17.30;99.90;;;;;;5013371;28;20621;-66
2022/07/10 01:30:35;;;;;;;7.57;7.00;;;17.30;99.90;;;;;;5012283;28;20194;-65
2022/07/10 01:33:00;;;;;;;7.53;7.00;;;17.20;99.90;;;;;;5008564;28;20179;-65
2022/07/10 01:35:26;;;;;;;7.43;6.93;;;17.30;99.90;;;;;;5011725;28;20183;-66
2022/07/10 01:37:51;;;;;;;7.13;6.57;;;17.20;99.90;;;;;;5009405;28;20567;-65
2022/07/10 01:40:17;;;;;;;6.80;6.30;;;17.10;99.90;;;;;;5011316;28;20778;-66
2022/07/10 01:42:43;;;;;;;6.77;6.27;;;17.00;99.90;;;;;;5011479;28;20179;-65
2022/07/10 01:45:10;;;;;;;7.70;7.10;;;17.00;99.90;;;;;;5014088;28;20171;-65
2022/07/10 01:47:36;;;;;;;7.33;6.77;;;16.90;99.90;;;;;;5015691;28;20461;-66
2022/07/10 01:50:02;;;;;;;7.83;7.33;;;16.90;99.90;;;;;;5016810;28;21075;-66
2022/07/10 01:52:28;;;;;;;8.23;7.57;;;16.70;99.90;;;;;;5011263;28;20513;-65
2022/07/10 01:54:53;;;;;;;7.60;7.10;;;16.70;99.90;;;;;;5015298;28;20456;-65
2022/07/10 01:57:19;;;;;;;7.20;6.70;;;16.60;99.90;;;;;;5011340;28;20268;-65
2022/07/10 01:59:44;;;;;;;7.87;7.30;;;16.60;99.90;;;;;;5018002;28;20227;-65
2022/07/10 02:02:10;;;;;;;7.80;7.00;;;16.60;99.90;;;;;;5010687;28;20586;-65
2022/07/10 02:04:41;;;;;;;7.60;7.00;;;16.50;99.90;;;;;;5017506;28;20636;-65
2022/07/10 02:07:18;;;;;;;7.50;6.90;;;16.50;99.90;;;;;;5010414;28;20178;-65
2022/07/10 02:09:45;;;;;;;9.13;7.67;;;16.60;99.90;;;;;;5018651;28;20827;-65
2022/07/10 02:12:13;;;;;;;8.20;7.40;;;16.50;99.90;;;;;;5009885;28;20812;-65
2022/07/10 02:14:40;;;;;;;8.10;7.50;;;16.50;99.90;;;;;;5014251;28;20440;-66
2022/07/10 02:17:07;;;;;;;8.80;7.60;;;16.50;99.90;;;;;;5010443;28;20437;-66
2022/07/10 02:19:33;;;;;;;10.97;10.17;;;16.40;99.90;;;;;;5017884;28;21074;-65
2022/07/10 02:21:59;;;;;;;11.37;10.40;;;16.30;99.90;;;;;;5010048;28;20445;-65
2022/07/10 02:24:24;;;;;;;12.47;11.47;;;16.30;99.90;;;;;;5016052;28;20821;-65
2022/07/10 02:26:50;;;;;;;13.57;12.47;;;16.30;99.90;;;;;;5013967;28;20241;-65
2022/07/10 02:29:16;;;;;;;14.20;13.10;;;16.30;99.90;;;;;;5017269;28;20193;-65
2022/07/10 02:31:41;;;;;;;14.63;13.43;;;16.30;99.90;;;;;;5020464;28;20210;-65
2022/07/10 02:34:08;;;;;;;15.27;13.93;;;16.40;99.90;;;;;;5017109;28;20185;-65
2022/07/10 02:36:34;;;;;;;15.37;13.80;;;16.40;99.90;;;;;;5013139;28;20249;-65
2022/07/10 02:39:00;;;;;;;14.77;13.67;;;16.40;99.90;;;;;;5010578;28;20437;-65
2022/07/10 02:41:26;;;;;;;14.27;13.00;;;16.50;99.90;;;;;;5013048;28;20433;-65
2022/07/10 02:43:51;;;;;;;16.17;14.80;;;16.60;99.90;;;;;;5014651;28;20178;-66
2022/07/10 02:46:17;;;;;;;17.47;15.97;;;16.60;99.90;;;;;;5013987;28;20206;-65
2022/07/10 02:48:42;;;;;;;18.57;16.97;;;16.70;99.90;;;;;;5008343;28;20532;-65
2022/07/10 02:51:08;;;;;;;19.40;17.67;;;16.70;99.90;;;;;;5010889;28;20301;-65
2022/07/10 02:53:33;;;;;;;18.03;16.43;;;16.80;99.90;;;;;;5013088;28;20179;-65
2022/07/10 02:55:59;;;;;;;20.13;18.47;;;16.80;99.90;;;;;;5010969;28;20179;-65
2022/07/10 02:58:25;;;;;;;19.60;18.00;;;16.80;99.90;;;;;;5020219;28;20556;-66
2022/07/10 03:00:51;;;;;;;16.37;14.90;;;16.90;99.90;;;;;;5002755;28;20676;-65
2022/07/10 03:03:17;;;;;;;17.87;16.27;;;16.90;99.90;;;;;;5012308;28;20449;-65
2022/07/10 03:05:44;;;;;;;16.73;14.13;;;16.90;99.90;;;;;;5012960;28;20189;-65
2022/07/10 03:08:09;;;;;;;17.57;15.87;;;16.90;99.90;;;;;;5022669;28;20443;-66
2022/07/10 03:10:35;;;;;;;17.77;15.80;;;17.00;99.90;;;;;;5013274;28;20453;-65
2022/07/10 03:13:01;;;;;;;17.20;15.70;;;17.10;99.90;;;;;;5013644;28;20879;-66
2022/07/10 03:15:27;;;;;;;19.47;17.77;;;17.10;99.90;;;;;;5018432;28;20257;-65
2022/07/10 03:17:52;;;;;;;19.77;18.17;;;17.00;99.90;;;;;;5014264;28;20520;-65
2022/07/10 03:20:18;;;;;;;19.30;17.67;;;16.90;99.90;;;;;;5020817;28;20526;-66
2022/07/10 03:22:43;;;;;;;18.00;16.30;;;16.80;99.90;;;;;;5014254;28;20190;-65
2022/07/10 03:25:09;;;;;;;16.73;15.33;;;16.70;99.90;;;;;;5017164;28;20201;-65
2022/07/10 03:27:35;;;;;;;17.83;16.33;;;16.70;99.90;;;;;;5014572;28;20271;-65
2022/07/10 03:30:00;;;;;;;19.13;17.43;;;16.70;99.90;;;;;;5011743;28;20683;-65
2022/07/10 03:32:26;;;;;;;18.30;16.80;;;16.70;99.90;;;;;;5014092;28;20260;-66
2022/07/10 03:34:52;;;;;;;17.57;15.97;;;16.70;99.90;;;;;;5013164;28;20186;-65
2022/07/10 03:37:17;;;;;;;17.70;16.17;;;16.70;99.90;;;;;;5046151;28;21773;-65
2022/07/10 03:39:42;;;;;;;18.73;16.83;;;16.70;99.90;;;;;;5013463;28;20788;-66
2022/07/10 03:42:08;;;;;;;18.70;17.20;;;16.70;99.90;;;;;;5019644;28;20174;-65
2022/07/10 03:44:33;;;;;;;18.40;16.63;;;16.70;99.90;;;;;;5014842;28;20211;-66
2022/07/10 03:46:59;;;;;;;17.67;16.27;;;16.70;99.90;;;;;;5015700;28;20201;-65
2022/07/10 03:52:01;;;;;;;17.97;16.40;;;16.40;99.90;;;;;;5000898;28;20541;-67
2022/07/10 03:54:26;;;;;;;18.13;16.53;;;16.60;99.90;;;;;;4997453;28;20434;-67
2022/07/10 03:59:36;;;;;;;18.57;16.80;;;16.50;99.90;;;;;;4978386;28;20470;-67
2022/07/10 04:02:02;;;;;;;18.77;17.07;;;16.50;99.90;;;;;;4994622;28;20935;-66
2022/07/10 04:04:28;;;;;;;18.00;16.50;;;16.50;99.90;;;;;;4985668;28;20374;-66
2022/07/10 04:06:53;;;;;;;16.90;15.50;;;16.50;99.90;;;;;;4992499;28;20175;-69
2022/07/10 04:09:19;;;;;;;18.07;16.23;;;16.40;99.90;;;;;;4997593;28;20176;-67
2022/07/10 04:11:44;;;;;;;17.40;15.80;;;16.40;99.90;;;;;;5002102;28;20199;-67
2022/07/10 04:14:10;;;;;;;19.33;17.63;;;16.40;99.90;;;;;;4989051;28;20204;-67
2022/07/10 04:16:35;;;;;;;17.97;16.43;;;16.40;99.90;;;;;;5005708;28;20188;-66
2022/07/10 04:19:01;;;;;;;18.47;16.67;;;16.50;99.90;;;;;;4986536;28;20191;-67
2022/07/10 04:21:26;;;;;;;19.40;17.60;;;16.50;99.90;;;;;;4993513;28;20204;-67
2022/07/10 04:23:52;;;;;;;19.50;17.73;;;16.40;99.90;;;;;;4997651;28;20207;-66
2022/07/10 04:26:17;;;;;;;18.50;16.70;;;16.40;99.90;;;;;;4992562;28;20592;-66
2022/07/10 04:28:43;;;;;;;17.60;16.30;;;16.40;99.90;;;;;;4999645;28;20175;-67
2022/07/10 04:31:08;;;;;;;19.57;17.57;;;16.40;99.90;;;;;;4996582;28;20195;-67
2022/07/10 04:33:34;;;;;;;18.33;16.73;;;16.40;99.90;;;;;;4993622;28;20540;-67
2022/07/10 04:35:59;;;;;;;17.83;16.20;;;16.40;99.90;;;;;;4997812;28;20199;-66
2022/07/10 04:38:25;;;;;;;14.90;13.50;;;16.40;99.90;;;;;;4994334;28;20553;-67
2022/07/10 04:40:50;;;;;;;17.23;15.93;;;16.50;99.90;;;;;;5000909;28;20253;-66
2022/07/10 04:43:16;;;;;;;17.63;15.47;;;16.60;99.90;;;;;;4992935;28;20233;-67
2022/07/10 04:45:41;;;;;;;14.10;12.90;;;16.60;99.90;;;;;;4992931;28;20180;-66
2022/07/10 04:48:07;;;;;;;14.73;13.40;;;16.70;99.90;;;;;;4993075;28;20198;-67
2022/07/10 04:50:32;;;;;;;15.47;14.17;;;16.70;99.90;;;;;;4999633;28;20223;-66
2022/07/10 04:52:58;;;;;;;14.00;12.80;;;16.70;99.90;;;;;;4992622;28;20187;-67
2022/07/10 04:55:24;;;;;;;14.50;13.10;;;16.80;99.90;;;;;;4992808;28;20184;-67
2022/07/10 04:57:49;;;;;;;12.63;11.50;;;16.80;99.90;;;;;;4991967;28;20211;-66
2022/07/10 05:00:15;;;;;;;13.17;12.10;;;16.80;99.90;;;;;;4991332;28;20214;-67
2022/07/10 05:02:41;;;;;;;10.73;9.93;;;16.70;99.90;;;;;;4992418;28;20178;-67
2022/07/10 05:05:08;;;;;;;11.53;10.40;;;16.80;99.90;;;;;;4992539;28;20435;-67
2022/07/10 05:07:33;;;;;;;11.27;10.37;;;16.80;99.90;;;;;;4993930;28;20431;-66
2022/07/10 05:09:59;;;;;;;10.20;9.37;;;16.80;99.90;;;;;;4992477;28;20839;-67
2022/07/10 05:12:24;;;;;;;10.43;9.53;;;16.80;99.90;;;;;;4992512;28;20183;-66
2022/07/10 05:14:50;;;;;;;11.87;10.63;;;16.90;99.90;;;;;;4997158;28;20648;-67
2022/07/10 05:17:15;;;;;;;11.23;10.10;;;16.80;99.90;;;;;;4995649;28;20612;-67
2022/07/10 05:19:41;;;;;;;9.03;8.43;;;16.80;99.90;;;;;;4995655;28;20203;-67
2022/07/10 05:22:07;;;;;;;10.47;9.47;;;16.80;99.90;;;;;;4990738;28;20175;-67
2022/07/10 05:24:33;;;;;;;9.20;8.40;;;16.80;99.90;;;;;;4992838;28;20311;-66
2022/07/10 05:26:58;;;;;;;8.87;8.17;;;16.80;99.90;;;;;;4983189;28;20510;-67
2022/07/10 05:29:24;;;;;;;8.83;7.93;;;16.90;99.90;;;;;;4999720;28;20186;-67
2022/07/10 05:31:49;;;;;;;8.17;7.57;;;17.00;99.90;;;;;;4996256;28;20172;-66
2022/07/10 05:34:14;;;;;;;8.37;7.50;;;17.10;99.90;;;;;;4992744;28;20183;-67
2022/07/10 05:36:40;;;;;;;8.47;7.77;;;17.20;99.90;;;;;;4993563;28;20557;-67
2022/07/10 05:39:06;;;;;;;10.10;7.40;;;17.30;99.90;;;;;;4992332;28;20679;-67
2022/07/10 05:41:32;;;;;;;8.50;6.83;;;17.50;99.90;;;;;;4991486;28;20200;-67
2022/07/10 05:43:59;;;;;;;7.10;6.50;;;17.60;99.90;;;;;;4990967;28;20176;-67
2022/07/10 05:46:25;;;;;;;7.33;6.73;;;17.60;99.90;;;;;;4996910;28;20943;-67
2022/07/10 05:48:50;;;;;;;6.50;5.90;;;17.70;99.90;;;;;;4996576;28;20517;-66
2022/07/10 05:51:16;;;;;;;6.60;5.90;;;17.70;99.90;;;;;;4997176;28;20297;-67
2022/07/10 05:53:41;;;;;;;6.43;5.67;;;17.60;99.90;;;;;;4992614;28;20188;-67
2022/07/10 05:56:07;;;;;;;5.57;5.07;;;17.70;99.90;;;;;;4991073;28;20207;-67
2022/07/10 05:58:32;;;;;;;5.47;4.53;;;17.90;99.90;;;;;;4998305;28;20194;-67
2022/07/10 06:00:58;;;;;;;4.77;4.47;;;18.30;99.90;;;;;;4997692;28;20592;-67
2022/07/10 06:03:24;;;;;;;6.27;5.30;;;18.40;99.90;;;;;;4992263;28;20195;-67
2022/07/10 06:05:49;;;;;;;4.70;4.40;;;18.40;99.90;;;;;;4989569;28;20207;-67
2022/07/10 06:08:15;;;;;;;5.57;5.07;;;18.30;99.90;;;;;;4989608;28;20579;-67
2022/07/10 06:10:40;;;;;;;4.60;4.30;;;18.20;99.90;;;;;;4989557;28;20204;-67
2022/07/10 06:13:06;;;;;;;5.07;4.67;;;18.20;99.90;;;;;;4999429;28;20187;-67
2022/07/10 06:15:32;;;;;;;4.73;4.23;;;18.20;99.90;;;;;;4984754;28;20184;-67
2022/07/10 06:17:58;;;;;;;4.83;4.30;;;18.60;99.90;;;;;;4994602;28;20438;-67
2022/07/10 06:20:25;;;;;;;5.53;3.93;;;18.90;99.90;;;;;;4993184;28;20805;-66
2022/07/10 06:22:51;;;;;;;4.40;4.00;;;19.30;99.90;;;;;;4999515;28;20171;-67
2022/07/10 06:25:17;;;;;;;6.57;4.50;;;19.40;99.90;;;;;;4999528;28;20456;-67
2022/07/10 06:27:42;;;;;;;4.87;4.57;;;19.20;99.90;;;;;;4998122;28;20234;-67
2022/07/10 06:30:08;;;;;;;6.57;5.70;;;18.90;99.90;;;;;;5000027;28;20241;-67
2022/07/10 06:32:34;;;;;;;5.07;4.67;;;18.70;99.90;;;;;;4995737;28;20620;-67
2022/07/10 06:34:59;;;;;;;5.33;4.70;;;18.70;99.90;;;;;;4994734;28;20521;-67
2022/07/10 06:37:25;;;;;;;4.77;4.47;;;18.70;99.90;;;;;;4995258;28;20645;-66
2022/07/10 06:39:51;;;;;;;4.63;4.30;;;18.80;99.90;;;;;;4993495;28;20206;-67
2022/07/10 06:42:16;;;;;;;5.13;4.73;;;18.70;99.90;;;;;;4982836;28;20183;-67
2022/07/10 06:44:43;;;;;;;4.87;4.17;;;18.60;99.90;;;;;;5002824;28;20270;-67
2022/07/10 06:49:55;;;;;;;6.10;4.90;;;18.30;99.90;;;;;;5000270;28;20480;-66
2022/07/10 06:52:21;;;;;;;5.80;4.33;;;18.20;99.90;;;;;;5002678;28;20509;-67
2022/07/10 06:54:47;;;;;;;7.97;7.17;;;18.00;99.90;;;;;;4992117;28;20862;-67
2022/07/10 06:57:12;;;;;;;5.23;4.83;;;18.00;99.90;;;;;;4993920;28;20546;-67
2022/07/10 06:59:38;;;;;;;6.00;4.50;;;18.30;99.90;;;;;;4993315;28;20458;-67
2022/07/10 07:02:04;;;;;;;4.50;3.47;;;18.80;99.90;;;;;;4994945;28;20239;-67
2022/07/10 07:04:30;;;;;;;4.17;3.80;;;19.10;99.90;;;;;;4989917;28;20178;-67
2022/07/10 07:06:55;;;;;;;3.57;3.33;;;19.40;99.90;;;;;;4994583;28;20442;-67
2022/07/10 07:09:21;;;;;;;5.30;3.80;;;19.90;99.90;;;;;;4994581;28;20172;-67
2022/07/10 07:11:46;;;;;;;3.50;2.93;;;19.90;99.90;;;;;;4995089;28;20731;-67
2022/07/10 07:14:13;;;;;;;3.57;3.20;;;20.10;99.90;;;;;;4995489;28;20256;-67
2022/07/10 07:16:57;;;;;;;4.70;3.70;;;20.10;99.90;;;;;;4995070;28;20218;-67
2022/07/10 07:19:30;;;;;;;4.83;3.33;;;20.20;99.90;;;;;;4994384;28;20438;-67
2022/07/10 07:24:44;;;;;;;5.00;3.40;;;19.90;99.90;;;;;;4978625;28;20505;-67
2022/07/10 07:27:10;;;;;;;4.57;3.20;;;19.90;99.90;;;;;;4995109;28;20430;-67
2022/07/10 07:29:36;;;;;;;4.37;3.80;;;19.60;99.90;;;;;;4990537;28;20635;-67
2022/07/10 07:32:02;;;;;;;3.73;3.43;;;19.60;99.90;;;;;;4990420;28;20443;-67
2022/07/10 07:34:27;;;;;;;4.70;4.30;;;19.60;99.90;;;;;;4997534;28;20258;-67
2022/07/10 07:36:53;;;;;;;3.50;3.23;;;19.30;99.90;;;;;;5003558;28;20191;-67
2022/07/10 07:39:18;;;;;;;5.37;3.67;;;19.10;99.90;;;;;;4992215;28;20237;-67
2022/07/10 07:41:44;;;;;;;4.70;3.50;;;18.90;99.90;;;;;;4994902;28;20612;-67
2022/07/10 07:44:09;;;;;;;3.93;3.60;;;18.80;99.90;;;;;;4994130;28;20180;-67
2022/07/10 07:46:35;;;;;;;5.43;3.40;;;18.90;99.90;;;;;;4996727;28;20184;-66
2022/07/10 07:49:00;;;;;;;3.60;3.30;;;19.00;99.90;;;;;;4993066;28;20187;-66
2022/07/10 07:51:26;;;;;;;3.17;2.97;;;19.10;99.90;;;;;;4991791;28;20610;-67
2022/07/10 07:53:51;;;;;;;3.90;3.10;;;19.60;99.90;;;;;;4993505;28;20282;-67
2022/07/10 07:56:17;;;;;;;6.37;3.43;;;20.20;99.90;;;;;;4993602;28;20194;-67
2022/07/10 07:58:42;;;;;;;3.60;3.23;;;20.40;99.90;;;;;;4993868;28;20188;-67
2022/07/10 08:01:08;;;;;;;2.90;2.70;;;20.50;99.90;;;;;;4993699;28;20215;-67
2022/07/10 08:03:33;;;;;;;4.80;2.97;;;20.50;99.90;;;;;;5003511;28;20182;-67
2022/07/10 08:05:59;;;;;;;7.57;2.80;;;20.50;99.90;;;;;;5000373;28;20172;-67
2022/07/10 08:08:24;;;;;;;3.20;2.80;;;20.70;99.90;;;;;;4992511;28;20235;-67
2022/07/10 08:10:50;;;;;;;4.20;3.83;;;20.90;99.90;;;;;;5003563;28;20647;-67
2022/07/10 08:13:15;;;;;;;4.70;2.10;;;20.80;99.90;;;;;;4995809;28;20271;-67
2022/07/10 08:15:41;;;;;;;2.83;2.27;;;21.30;99.90;;;;;;4993783;28;20179;-67
2022/07/10 08:18:07;;;;;;;2.50;2.30;;;21.70;99.90;;;;;;5000082;28;20245;-67
2022/07/10 08:20:33;;;;;;;2.80;2.43;;;21.90;99.90;;;;;;5002956;28;20466;-66
2022/07/10 08:22:58;;;;;;;3.10;2.67;;;21.60;99.90;;;;;;5000595;28;20185;-67
2022/07/10 08:25:24;;;;;;;3.40;2.47;;;21.50;99.90;;;;;;5011429;28;20529;-67
2022/07/10 08:27:50;;;;;;;4.90;2.53;;;21.90;99.90;;;;;;5007531;28;20218;-67
2022/07/10 08:30:16;;;;;;;4.10;2.60;;;22.10;99.90;;;;;;4994559;28;20715;-67
2022/07/10 08:32:42;;;;;;;6.80;3.10;;;22.40;99.90;;;;;;4993861;28;20175;-67
2022/07/10 08:35:09;;;;;;;3.20;2.43;;;22.60;99.90;;;;;;4993562;28;20530;-67
2022/07/10 08:37:45;;;;;;;2.40;2.20;;;22.90;99.30;;;;;;4994436;28;20271;-67
2022/07/10 08:40:16;;;;;;;4.23;3.00;;;23.30;98.90;;;;;;4992446;28;20469;-67
2022/07/10 08:42:44;;;;;;;2.90;2.70;;;23.80;97.70;;;;;;4993464;28;20471;-67
2022/07/10 08:45:11;;;;;;;4.67;3.00;;;23.30;97.60;;;;;;4997076;28;20497;-68
2022/07/10 08:47:38;;;;;;;3.13;2.50;;;23.60;97.90;;;;;;4995037;28;20466;-67
2022/07/10 08:50:04;;;;;;;2.90;2.60;;;24.10;97.40;;;;;;4987047;28;20477;-67
2022/07/10 08:52:42;;;;;;;3.40;2.40;;;24.10;96.60;;;;;;4997105;28;20438;-67
2022/07/10 08:55:13;;;;;;;3.33;2.13;;;24.00;95.30;;;;;;5000494;28;20442;-67
2022/07/10 08:57:40;;;;;;;3.10;2.40;;;24.00;94.50;;;;;;4999091;28;20456;-65
2022/07/10 09:00:07;;;;;;;3.57;2.90;;;23.90;95.00;;;;;;4996941;28;20467;-66
2022/07/10 09:02:32;;;;;;;2.80;2.60;;;23.80;94.40;;;;;;4989332;28;20521;-65
2022/07/10 09:04:59;;;;;;;2.50;2.23;;;23.30;95.10;;;;;;4989953;28;20572;-65
2022/07/10 09:07:24;;;;;;;7.03;2.50;;;23.60;95.50;;;;;;4982461;28;20219;-66
2022/07/10 09:09:57;;;;;;;2.90;2.30;;;23.60;93.70;;;;;;4982671;28;20511;-64
2022/07/10 09:12:24;;;;;;;2.90;2.33;;;23.50;94.50;;;;;;4982247;28;20211;-64
2022/07/10 09:14:51;;;;;;;2.27;2.17;;;23.80;94.50;;;;;;4987784;28;20434;-63
2022/07/10 09:17:17;;;;;;;2.27;2.13;;;23.50;95.10;;;;;;4986185;28;20464;-66
2022/07/10 09:19:43;;;;;;;5.00;2.70;;;23.30;94.70;;;;;;4983865;28;20579;-65
2022/07/10 09:22:10;;;;;;;6.10;2.60;;;23.30;94.90;;;;;;4991828;28;20518;-66
2022/07/10 09:24:46;;;;;;;4.70;3.20;;;23.20;95.30;;;;;;4987902;28;20446;-66
2022/07/10 09:27:14;;;;;;;3.73;3.00;;;23.30;94.10;;;;;;4984904;28;20438;-65
2022/07/10 09:29:51;;;;;;;4.10;2.30;;;23.40;94.10;;;;;;4985101;28;20982;-66
2022/07/10 09:32:17;;;;;;;4.83;2.60;;;23.40;94.40;;;;;;4983616;28;20434;-65
2022/07/10 09:34:48;;;;;;;5.70;3.03;;;23.40;94.00;;;;;;4999848;28;20961;-65
2022/07/10 09:37:27;;;;;;;5.17;3.20;;;23.50;93.40;;;;;;4973240;28;20270;-66
2022/07/10 09:40:03;;;;;;;3.30;2.20;;;23.30;93.30;;;;;;4988902;28;20490;-66
2022/07/10 09:42:33;;;;;;;3.00;2.70;;;22.90;93.70;;;;;;4989129;28;20779;-67
2022/07/10 09:45:12;;;;;;;2.87;2.63;;;23.40;93.60;;;;;;4990970;28;20434;-67
2022/07/10 09:48:04;;;;;;;3.90;2.70;;;24.20;92.50;;;;;;4985395;28;20445;-66
2022/07/10 09:50:33;;;;;;;4.13;1.90;;;25.10;90.50;;;;;;4987640;28;20486;-66
2022/07/10 09:53:00;;;;;;;2.43;2.23;;;24.90;90.60;;;;;;4992014;28;20515;-67
2022/07/10 09:55:30;;;;;;;3.93;3.43;;;24.50;90.70;;;;;;4991493;28;20857;-66
2022/07/10 09:58:01;;;;;;;2.67;2.00;;;23.60;91.60;;;;;;4993992;28;20450;-66
2022/07/10 10:00:32;;;;;;;5.13;2.57;;;22.80;92.10;;;;;;4997821;28;20470;-67
2022/07/10 10:02:59;;;;;;;2.53;2.33;;;22.80;93.00;;;;;;4989452;28;20595;-66
2022/07/10 10:05:35;;;;;;;3.20;2.90;;;23.20;92.80;;;;;;4988885;28;20507;-66
2022/07/10 10:08:07;;;;;;;3.47;3.17;;;23.70;91.30;;;;;;4988654;28;20440;-67
2022/07/10 10:10:35;;;;;;;4.40;3.23;;;24.80;90.20;;;;;;4986900;28;21012;-67
2022/07/10 10:13:05;;;;;;;3.57;3.20;;;25.50;87.50;;;;;;4993873;28;20529;-66
2022/07/10 10:15:32;;;;;;;3.87;3.17;;;25.20;87.20;;;;;;4979489;28;20973;-67
2022/07/10 10:17:59;;;;;;;3.33;2.80;;;24.80;87.50;;;;;;4989457;28;20512;-67
2022/07/10 10:20:41;;;;;;;3.63;3.30;;;23.70;89.30;;;;;;4994003;28;20470;-67
2022/07/10 10:23:12;;;;;;;3.90;2.60;;;24.00;90.10;;;;;;4982271;28;20442;-67
2022/07/10 10:25:38;;;;;;;3.40;2.57;;;24.20;89.10;;;;;;4985797;28;20489;-66
2022/07/10 10:28:10;;;;;;;2.57;2.33;;;23.90;89.30;;;;;;4985087;28;20442;-67
2022/07/10 10:30:39;;;;;;;2.77;2.57;;;24.10;89.00;;;;;;4989711;28;20458;-66
2022/07/10 10:33:42;;;;;;;2.77;2.30;;;25.10;84.90;;;;;;4985375;28;20414;-67
2022/07/10 10:36:13;;;;;;;3.63;2.67;;;26.40;82.30;;;;;;4988521;28;20465;-67
2022/07/10 10:38:45;;;;;;;2.40;2.20;;;28.10;74.10;;;;;;4981381;28;20462;-67
2022/07/10 10:41:32;;;;;;;3.80;2.30;;;28.60;70.10;;;;;;4987889;28;21225;-67
2022/07/10 10:44:07;;;;;;;3.30;3.00;;;27.10;71.30;;;;;;4983967;28;20442;-67
2022/07/10 10:46:33;;;;;;;4.10;2.20;;;26.60;73.40;;;;;;4989958;28;20426;-67
2022/07/10 10:49:06;;;;;;;2.23;2.07;;;28.00;72.80;;;;;;4982054;28;20423;-67
2022/07/10 10:52:00;;;;;;;2.23;2.00;;;29.20;68.30;;;;;;4982149;28;20478;-67
2022/07/10 10:54:57;;;;;;;2.87;2.30;;;30.00;66.10;;;;;;4985999;28;20446;-67
2022/07/10 10:57:44;;;;;;;2.60;2.40;;;31.90;63.70;;;;;;4977110;28;20940;-67
2022/07/10 11:00:14;;;;;;;2.80;2.60;;;32.80;59.30;;;;;;4977667;28;20470;-67
2022/07/10 11:02:40;;;;;;;4.03;2.40;;;31.10;59.00;;;;;;4991639;28;21067;-67
2022/07/10 11:05:17;;;;;;;3.87;2.57;;;28.50;61.90;;;;;;4989994;28;20507;-67
2022/07/10 11:08:01;;;;;;;6.90;2.73;;;27.10;65.40;;;;;;4987127;28;20222;-67
2022/07/10 11:10:39;;;;;;;2.53;2.33;;;26.90;68.30;;;;;;4985623;28;20554;-67
2022/07/10 11:13:12;;;;;;;6.50;4.63;;;28.60;67.10;;;;;;4981258;28;20430;-67
2022/07/10 11:15:42;;;;;;;21.93;11.23;;;30.30;61.90;;;;;;4989957;28;20441;-67
2022/07/10 11:18:13;;;;;;;15.10;8.10;;;31.00;60.10;;;;;;4988366;28;20438;-67
2022/07/10 11:20:41;;;;;;;3.47;2.53;;;32.10;58.40;;;;;;4992706;28;20474;-67
2022/07/10 11:23:44;;;;;;;3.83;2.80;;;31.40;56.40;;;;;;4989584;28;20447;-67
2022/07/10 11:26:49;;;;;;;5.37;4.40;;;29.20;58.50;;;;;;4983071;28;20443;-67
2022/07/10 11:29:18;;;;;;;2.40;2.23;;;28.00;59.90;;;;;;4981346;28;20465;-67
2022/07/10 11:31:53;;;;;;;7.20;4.37;;;28.50;59.10;;;;;;4989525;28;21020;-67
2022/07/10 11:34:19;;;;;;;5.73;4.40;;;30.20;56.80;;;;;;4986452;28;20944;-67
2022/07/10 11:36:46;;;;;;;4.13;3.00;;;31.90;55.10;;;;;;4993821;28;20446;-68
2022/07/10 11:39:13;;;;;;;5.17;3.40;;;33.70;52.30;;;;;;4994601;28;20187;-68
2022/07/10 11:41:44;;;;;;;5.47;3.10;;;33.90;50.30;;;;;;4992376;28;20470;-67
2022/07/10 11:44:17;;;;;;;9.70;6.80;;;33.00;50.10;;;;;;4993939;28;20434;-67
2022/07/10 11:46:48;;;;;;;3.87;3.23;;;30.90;52.80;;;;;;4986062;28;20462;-68
2022/07/10 11:49:14;;;;;;;2.70;2.20;;;31.10;52.80;;;;;;4992248;28;20438;-68
2022/07/10 11:51:40;;;;;;;7.70;5.10;;;32.50;50.20;;;;;;4991063;28;20482;-68
2022/07/10 11:54:12;;;;;;;2.67;2.20;;;32.10;50.50;;;;;;4991203;28;20460;-67
2022/07/10 11:56:46;;;;;;;14.50;6.10;;;32.60;49.20;;;;;;4990975;28;21051;-68
2022/07/10 11:59:13;;;;;;;2.80;2.10;;;32.50;49.40;;;;;;4988394;28;20430;-68
2022/07/10 12:01:44;;;;;;;8.10;2.70;;;33.00;49.10;;;;;;4994180;28;20478;-68
2022/07/10 12:04:11;;;;;;;4.10;2.70;;;34.50;47.40;;;;;;4993478;28;20807;-68
2022/07/10 12:06:40;;;;;;;2.90;2.67;;;33.90;46.70;;;;;;4993878;28;20439;-68
2022/07/10 12:09:10;;;;;;;5.27;4.17;;;34.60;46.10;;;;;;4989460;28;20462;-68
2022/07/10 12:11:37;;;;;;;10.20;6.70;;;33.50;46.80;;;;;;4981935;28;20451;-68
2022/07/10 12:14:14;;;;;;;3.40;2.50;;;31.20;47.90;;;;;;4993456;28;20439;-67
2022/07/10 12:16:42;;;;;;;6.23;4.80;;;29.50;50.40;;;;;;4988144;28;20933;-68
2022/07/10 12:19:10;;;;;;;3.20;2.20;;;31.00;49.80;;;;;;4993188;28;20462;-67
2022/07/10 12:21:36;;;;;;;4.60;2.03;;;31.50;48.20;;;;;;4993431;28;20548;-67
2022/07/10 12:24:02;;;;;;;3.47;1.57;;;32.50;46.50;;;;;;4992793;28;20442;-67
2022/07/10 12:26:40;;;;;;;5.93;3.60;;;33.70;45.70;;;;;;4993605;28;20477;-68
2022/07/10 12:29:06;;;;;;;5.23;2.60;;;34.00;45.20;;;;;;4987172;28;20434;-68
2022/07/10 12:31:33;;;;;;;2.80;1.90;;;34.30;44.50;;;;;;4985064;28;20488;-68
2022/07/10 12:34:04;;;;;;;2.00;1.80;;;35.30;43.40;;;;;;4989549;28;20439;-68
2022/07/10 12:36:47;;;;;;;4.13;3.73;;;35.50;42.30;;;;;;4989393;28;20478;-68
2022/07/10 12:39:15;;;;;;;1.80;1.57;;;36.50;41.10;;;;;;4984139;28;20463;-68
2022/07/10 12:42:23;;;;;;;2.63;1.50;;;36.60;39.00;;;;;;4991372;28;20475;-68
2022/07/10 12:44:49;;;;;;;5.30;3.57;;;37.30;40.10;;;;;;4953556;28;20526;-68
2022/07/10 12:47:16;;;;;;;2.30;1.63;;;38.20;38.50;;;;;;4993381;28;20514;-68
2022/07/10 12:49:48;;;;;;;2.20;2.03;;;38.10;38.00;;;;;;4992289;28;20176;-68
2022/07/10 12:52:31;;;;;;;2.13;1.93;;;37.70;37.70;;;;;;4987936;28;20524;-68
2022/07/10 12:55:14;;;;;;;2.20;2.00;;;38.50;37.70;;;;;;4993350;28;20437;-68
2022/07/10 12:57:53;;;;;;;3.10;1.63;;;38.50;36.90;;;;;;4979393;28;20442;-68